Time;durP1;ratioP1;P1;durP2;ratioP2;P2;SDS_P1;SDS_P2;PMS_P1;PMS_P2;Temp;Humidity;BMP_temperature;BMP_pressure;BME280_temperature;BME280_humidity;BME280_pressure;Samples;Min_cycle;Max_cycle;Signal;HPM_P1;HPM_P2
2023/12/15 00:01:29;;;;;;;14.57;7.65;;;;;;;;;;5114871;28;20160;-63
2023/12/15 00:03:55;;;;;;;11.68;7.13;;;;;;;;;;5115402;28;20034;-63
2023/12/15 00:06:21;;;;;;;13.18;7.15;;;;;;;;;;5114208;28;20091;-63
2023/12/15 00:08:47;;;;;;;13.35;7.30;;;;;;;;;;5115335;28;20452;-63
2023/12/15 00:11:13;;;;;;;13.68;7.07;;;;;;;;;;5095564;28;20168;-64
2023/12/15 00:13:39;;;;;;;14.35;7.50;;;;;;;;;;5115098;28;20016;-63
2023/12/15 00:16:05;;;;;;;13.43;6.32;;;;;;;;;;5114212;28;20463;-64
2023/12/15 00:18:31;;;;;;;13.00;6.63;;;;;;;;;;5114478;28;20051;-63
2023/12/15 00:20:57;;;;;;;12.07;7.05;;;;;;;;;;5114141;28;20081;-63
2023/12/15 00:23:23;;;;;;;15.65;7.15;;;;;;;;;;5113969;28;20019;-63
2023/12/15 00:25:49;;;;;;;13.35;7.63;;;;;;;;;;5114566;28;20430;-63
2023/12/15 00:28:15;;;;;;;13.32;7.25;;;;;;;;;;5113372;28;20031;-63
2023/12/15 00:30:41;;;;;;;13.73;7.40;;;;;;;;;;5114684;28;20019;-63
2023/12/15 00:33:07;;;;;;;10.30;6.03;;;;;;;;;;5113704;28;20026;-63
2023/12/15 00:35:33;;;;;;;10.02;6.50;;;;;;;;;;5114771;28;20035;-63
2023/12/15 00:37:59;;;;;;;13.80;6.90;;;;;;;;;;5114250;28;20094;-63
2023/12/15 00:40:25;;;;;;;16.45;7.45;;;;;;;;;;5114250;28;20035;-63
2023/12/15 00:42:51;;;;;;;15.65;6.95;;;;;;;;;;5107010;28;20207;-63
2023/12/15 00:45:17;;;;;;;13.13;6.88;;;;;;;;;;5105386;28;20012;-63
2023/12/15 00:47:43;;;;;;;14.38;7.68;;;;;;;;;;5107001;28;20016;-64
2023/12/15 00:50:11;;;;;;;12.30;6.60;;;;;;;;;;5108646;28;20026;-63
2023/12/15 00:52:37;;;;;;;13.85;6.93;;;;;;;;;;5107051;28;20035;-64
2023/12/15 00:55:03;;;;;;;13.90;6.57;;;;;;;;;;5104019;28;20016;-64
2023/12/15 00:57:29;;;;;;;12.57;7.15;;;;;;;;;;5105796;28;20027;-63
2023/12/15 00:59:56;;;;;;;12.52;7.15;;;;;;;;;;5104757;28;20035;-63
2023/12/15 01:02:22;;;;;;;13.77;7.03;;;;;;;;;;5105166;28;20848;-63
2023/12/15 01:04:48;;;;;;;12.02;7.13;;;;;;;;;;5105619;28;20024;-63
2023/12/15 01:07:14;;;;;;;14.57;7.38;;;;;;;;;;5106592;28;20095;-63
2023/12/15 01:09:39;;;;;;;16.77;7.32;;;;;;;;;;5104611;28;20026;-63
2023/12/15 01:12:06;;;;;;;15.23;7.93;;;;;;;;;;5109419;28;20019;-63
2023/12/15 01:14:32;;;;;;;15.13;7.05;;;;;;;;;;5114143;28;20038;-63
2023/12/15 01:16:58;;;;;;;15.23;7.65;;;;;;;;;;5110091;28;20544;-63
2023/12/15 01:19:24;;;;;;;13.30;8.10;;;;;;;;;;5113014;28;20093;-63
2023/12/15 01:21:49;;;;;;;14.63;7.50;;;;;;;;;;5112517;28;20785;-63
2023/12/15 01:24:16;;;;;;;12.77;7.10;;;;;;;;;;5113282;28;20096;-63
2023/12/15 01:26:42;;;;;;;13.70;6.97;;;;;;;;;;5113469;28;20016;-63
2023/12/15 01:29:08;;;;;;;13.60;7.38;;;;;;;;;;5112853;28;20361;-63
2023/12/15 01:31:33;;;;;;;13.55;7.63;;;;;;;;;;5113754;28;20038;-63
2023/12/15 01:34:00;;;;;;;16.52;8.18;;;;;;;;;;5114037;28;20027;-63
2023/12/15 01:36:28;;;;;;;14.75;7.80;;;;;;;;;;5112677;28;20095;-63
2023/12/15 01:38:54;;;;;;;15.45;8.05;;;;;;;;;;5113438;28;20015;-63
2023/12/15 01:41:20;;;;;;;15.40;8.07;;;;;;;;;;5112518;28;20084;-63
2023/12/15 01:43:45;;;;;;;14.55;7.75;;;;;;;;;;5113771;28;20031;-63
2023/12/15 01:46:11;;;;;;;13.95;7.70;;;;;;;;;;5112186;28;20375;-63
2023/12/15 01:48:38;;;;;;;15.68;9.10;;;;;;;;;;5113577;28;20026;-63
2023/12/15 01:51:05;;;;;;;19.02;9.93;;;;;;;;;;5111803;28;20027;-64
2023/12/15 01:53:30;;;;;;;14.60;8.65;;;;;;;;;;5113308;28;20409;-64
2023/12/15 01:55:56;;;;;;;16.83;9.30;;;;;;;;;;5113457;28;20122;-64
2023/12/15 01:58:22;;;;;;;12.75;8.40;;;;;;;;;;5112058;28;20379;-64
2023/12/15 02:00:48;;;;;;;15.88;8.43;;;;;;;;;;5113363;28;20062;-64
2023/12/15 02:03:14;;;;;;;14.90;8.48;;;;;;;;;;5112011;28;20027;-63
2023/12/15 02:05:40;;;;;;;13.93;9.10;;;;;;;;;;5113557;28;20028;-63
2023/12/15 02:08:06;;;;;;;14.23;7.97;;;;;;;;;;5111921;28;20024;-64
2023/12/15 02:10:37;;;;;;;14.90;8.45;;;;;;;;;;5113012;28;20098;-63
2023/12/15 02:13:03;;;;;;;19.60;8.90;;;;;;;;;;5111417;28;20026;-63
2023/12/15 02:15:29;;;;;;;17.45;9.43;;;;;;;;;;5112906;28;20102;-63
2023/12/15 02:17:55;;;;;;;17.67;9.20;;;;;;;;;;5112204;28;20503;-63
2023/12/15 02:20:21;;;;;;;17.55;10.07;;;;;;;;;;5092483;28;20046;-63
2023/12/15 02:22:47;;;;;;;18.17;9.75;;;;;;;;;;5091684;28;20078;-63
2023/12/15 02:25:13;;;;;;;18.85;9.88;;;;;;;;;;5091849;28;20023;-63
2023/12/15 02:27:40;;;;;;;16.13;9.18;;;;;;;;;;5092068;28;20472;-63
2023/12/15 02:30:06;;;;;;;18.45;9.95;;;;;;;;;;5091393;28;20028;-63
2023/12/15 02:32:32;;;;;;;16.05;9.55;;;;;;;;;;5091498;28;20102;-63
2023/12/15 02:34:58;;;;;;;18.10;9.50;;;;;;;;;;5092415;28;20114;-63
2023/12/15 02:37:24;;;;;;;18.35;9.27;;;;;;;;;;5090914;28;20035;-63
2023/12/15 02:39:50;;;;;;;20.35;10.57;;;;;;;;;;5092317;28;20024;-63
2023/12/15 02:42:16;;;;;;;18.23;9.88;;;;;;;;;;5090327;28;20044;-63
2023/12/15 02:44:44;;;;;;;21.30;10.18;;;;;;;;;;5092127;28;20016;-63
2023/12/15 02:47:09;;;;;;;18.13;9.07;;;;;;;;;;5090653;28;20094;-63
2023/12/15 02:49:39;;;;;;;20.80;10.20;;;;;;;;;;5091882;28;20451;-63
2023/12/15 02:52:06;;;;;;;19.63;10.02;;;;;;;;;;5090571;28;20498;-63
2023/12/15 02:54:32;;;;;;;20.52;9.98;;;;;;;;;;5091654;28;20051;-63
2023/12/15 02:56:58;;;;;;;18.35;10.88;;;;;;;;;;5091539;28;20024;-63
2023/12/15 02:59:24;;;;;;;19.45;10.13;;;;;;;;;;5091139;28;20067;-62
2023/12/15 03:01:50;;;;;;;16.15;9.32;;;;;;;;;;5091416;28;20024;-63
2023/12/15 03:04:16;;;;;;;18.55;9.27;;;;;;;;;;5090239;28;20054;-63
2023/12/15 03:06:42;;;;;;;14.68;8.70;;;;;;;;;;5091541;28;20051;-62
2023/12/15 03:09:08;;;;;;;16.83;8.77;;;;;;;;;;5090782;28;20012;-63
2023/12/15 03:11:34;;;;;;;17.60;9.32;;;;;;;;;;5091033;28;20030;-63
2023/12/15 03:14:00;;;;;;;18.60;8.40;;;;;;;;;;5090943;28;20055;-64
2023/12/15 03:16:26;;;;;;;14.07;8.10;;;;;;;;;;5091091;28;20415;-63
2023/12/15 03:18:52;;;;;;;17.30;9.05;;;;;;;;;;5090925;28;20040;-63
2023/12/15 03:21:18;;;;;;;14.38;8.32;;;;;;;;;;5089144;28;20759;-63
2023/12/15 03:23:44;;;;;;;17.00;8.05;;;;;;;;;;5089927;28;20031;-63
2023/12/15 03:26:10;;;;;;;14.52;8.30;;;;;;;;;;5090042;28;20485;-63
2023/12/15 03:28:38;;;;;;;13.00;7.97;;;;;;;;;;5091598;28;20099;-63
2023/12/15 03:31:05;;;;;;;15.18;8.15;;;;;;;;;;5089991;28;20031;-63
2023/12/15 03:33:35;;;;;;;16.52;7.53;;;;;;;;;;5091299;28;20024;-63
2023/12/15 03:36:01;;;;;;;11.48;7.38;;;;;;;;;;5090845;28;20024;-63
2023/12/15 03:38:27;;;;;;;15.82;7.70;;;;;;;;;;5090317;28;20027;-63
2023/12/15 03:40:53;;;;;;;12.80;7.32;;;;;;;;;;5091245;28;20388;-63
2023/12/15 03:43:19;;;;;;;14.82;7.45;;;;;;;;;;5089945;28;20016;-63
2023/12/15 03:45:45;;;;;;;14.45;7.82;;;;;;;;;;5090934;28;20020;-63
2023/12/15 03:48:11;;;;;;;12.70;7.25;;;;;;;;;;5089651;28;20024;-62
2023/12/15 03:50:37;;;;;;;13.73;7.32;;;;;;;;;;5072911;28;20028;-62
2023/12/15 03:53:03;;;;;;;11.63;7.50;;;;;;;;;;5090074;28;20078;-63
2023/12/15 03:55:29;;;;;;;12.80;7.15;;;;;;;;;;5090661;28;20031;-63
2023/12/15 03:57:55;;;;;;;15.82;7.75;;;;;;;;;;5090627;28;20051;-63
2023/12/15 04:00:21;;;;;;;13.40;8.18;;;;;;;;;;5071899;28;20056;-63
2023/12/15 04:02:48;;;;;;;12.25;7.70;;;;;;;;;;5090774;28;20028;-63
2023/12/15 04:05:14;;;;;;;12.55;7.55;;;;;;;;;;5090082;28;20460;-63
2023/12/15 04:07:40;;;;;;;10.98;6.97;;;;;;;;;;5090678;28;20024;-63
2023/12/15 04:10:06;;;;;;;11.00;7.30;;;;;;;;;;5090057;28;20030;-63
2023/12/15 04:12:32;;;;;;;14.90;8.48;;;;;;;;;;5089944;28;20077;-63
2023/12/15 04:14:58;;;;;;;17.02;8.30;;;;;;;;;;5090815;28;20013;-62
2023/12/15 04:17:24;;;;;;;15.43;8.10;;;;;;;;;;5090037;28;20032;-62
2023/12/15 04:19:50;;;;;;;14.30;7.55;;;;;;;;;;5104953;28;20808;-62
2023/12/15 04:22:18;;;;;;;11.63;6.90;;;;;;;;;;5109933;28;20035;-63
2023/12/15 04:24:45;;;;;;;14.25;7.85;;;;;;;;;;5110699;28;20012;-62
2023/12/15 04:27:11;;;;;;;13.98;7.75;;;;;;;;;;5109913;28;20043;-62
2023/12/15 04:29:37;;;;;;;15.38;7.93;;;;;;;;;;5110781;28;20027;-63
2023/12/15 04:32:03;;;;;;;11.60;7.53;;;;;;;;;;5110193;28;20111;-62
2023/12/15 04:34:29;;;;;;;15.48;8.05;;;;;;;;;;5113096;28;20384;-62
2023/12/15 04:36:55;;;;;;;10.65;6.65;;;;;;;;;;5114594;28;20024;-62
2023/12/15 04:39:21;;;;;;;11.18;6.80;;;;;;;;;;5113714;28;20086;-63
2023/12/15 04:41:47;;;;;;;12.35;7.22;;;;;;;;;;5114512;28;20032;-62
2023/12/15 04:44:13;;;;;;;11.80;6.47;;;;;;;;;;5114108;28;20020;-63
2023/12/15 04:46:41;;;;;;;9.77;6.40;;;;;;;;;;5109561;28;20099;-62
2023/12/15 04:49:06;;;;;;;10.15;6.60;;;;;;;;;;5110953;28;20015;-63
2023/12/15 04:51:32;;;;;;;11.60;6.78;;;;;;;;;;5114138;28;20040;-63
2023/12/15 04:53:58;;;;;;;9.27;6.45;;;;;;;;;;5114719;28;20024;-63
2023/12/15 04:56:25;;;;;;;13.45;6.43;;;;;;;;;;5113113;28;20032;-63
2023/12/15 04:58:51;;;;;;;12.23;6.43;;;;;;;;;;5114649;28;20015;-63
2023/12/15 05:01:17;;;;;;;9.70;5.97;;;;;;;;;;5113034;28;20084;-63
2023/12/15 05:03:44;;;;;;;13.10;6.10;;;;;;;;;;5113789;28;20107;-63
2023/12/15 05:06:23;;;;;;;10.52;6.13;;;;;;;;;;5112981;28;20501;-63
2023/12/15 05:08:50;;;;;;;10.65;6.20;;;;;;;;;;5114436;28;20020;-63
2023/12/15 05:11:16;;;;;;;8.43;5.97;;;;;;;;;;5112171;28;20561;-63
2023/12/15 05:13:42;;;;;;;9.20;6.18;;;;;;;;;;5114512;28;20464;-63
2023/12/15 05:16:09;;;;;;;9.10;5.70;;;;;;;;;;5112860;28;20112;-62
2023/12/15 05:18:35;;;;;;;12.93;6.60;;;;;;;;;;5112947;28;20527;-62
2023/12/15 05:21:01;;;;;;;10.50;6.18;;;;;;;;;;5113260;28;20032;-62
2023/12/15 05:23:27;;;;;;;8.73;5.88;;;;;;;;;;5113292;28;20023;-62
2023/12/15 05:25:53;;;;;;;10.00;6.15;;;;;;;;;;5113397;28;20023;-62
2023/12/15 05:28:20;;;;;;;10.18;6.07;;;;;;;;;;5112598;28;20166;-62
2023/12/15 05:30:46;;;;;;;9.65;6.38;;;;;;;;;;5113973;28;20027;-62
2023/12/15 05:33:12;;;;;;;12.80;6.47;;;;;;;;;;5112581;28;20023;-62
2023/12/15 05:35:38;;;;;;;13.07;6.60;;;;;;;;;;5113756;28;20076;-62
2023/12/15 05:38:04;;;;;;;14.52;7.82;;;;;;;;;;5104517;28;20465;-62
2023/12/15 05:40:30;;;;;;;10.20;6.88;;;;;;;;;;5101731;28;20020;-63
2023/12/15 05:42:56;;;;;;;11.23;6.18;;;;;;;;;;5103095;28;20024;-62
2023/12/15 05:45:22;;;;;;;10.65;7.47;;;;;;;;;;5105250;28;20108;-62
2023/12/15 05:47:51;;;;;;;11.30;6.97;;;;;;;;;;5098852;28;20469;-62
2023/12/15 05:50:17;;;;;;;11.43;6.53;;;;;;;;;;5107097;28;20073;-62
2023/12/15 05:52:43;;;;;;;10.88;7.10;;;;;;;;;;5112090;28;20008;-63
2023/12/15 05:55:09;;;;;;;14.32;7.32;;;;;;;;;;5112200;28;20015;-63
2023/12/15 05:57:35;;;;;;;9.50;6.60;;;;;;;;;;5112438;28;20050;-62
2023/12/15 06:00:01;;;;;;;12.32;7.53;;;;;;;;;;5112246;28;20051;-63
2023/12/15 06:02:27;;;;;;;10.85;6.93;;;;;;;;;;5111783;28;20042;-63
2023/12/15 06:04:53;;;;;;;13.93;7.07;;;;;;;;;;5113457;28;20479;-61
2023/12/15 06:07:19;;;;;;;12.95;7.32;;;;;;;;;;5111523;28;20152;-62
2023/12/15 06:09:45;;;;;;;11.70;7.07;;;;;;;;;;5112959;28;20039;-64
2023/12/15 06:12:11;;;;;;;11.90;7.18;;;;;;;;;;5110202;28;20696;-64
2023/12/15 06:14:37;;;;;;;10.88;7.43;;;;;;;;;;5112786;28;20464;-61
2023/12/15 06:17:06;;;;;;;15.43;8.20;;;;;;;;;;5111576;28;20077;-61
2023/12/15 06:19:33;;;;;;;11.25;7.18;;;;;;;;;;5100322;28;20051;-61
2023/12/15 06:21:58;;;;;;;12.98;7.55;;;;;;;;;;5107226;28;20027;-61
2023/12/15 06:24:24;;;;;;;11.07;7.05;;;;;;;;;;5111954;28;20305;-60
2023/12/15 06:26:50;;;;;;;13.02;7.70;;;;;;;;;;5109291;28;20015;-60
2023/12/15 06:29:16;;;;;;;12.25;7.20;;;;;;;;;;5111272;28;20069;-60
2023/12/15 06:31:48;;;;;;;12.15;7.63;;;;;;;;;;5111172;28;20035;-61
2023/12/15 06:34:14;;;;;;;13.50;8.05;;;;;;;;;;5110941;28;20028;-64
2023/12/15 06:36:41;;;;;;;11.35;7.88;;;;;;;;;;5110550;28;20346;-61
2023/12/15 06:39:07;;;;;;;12.68;8.10;;;;;;;;;;5111273;28;20019;-61
2023/12/15 06:41:33;;;;;;;11.32;7.47;;;;;;;;;;5110730;28;20039;-60
2023/12/15 06:43:59;;;;;;;11.50;7.50;;;;;;;;;;5111534;28;20012;-61
2023/12/15 06:46:25;;;;;;;12.30;7.68;;;;;;;;;;5109788;28;20059;-61
2023/12/15 06:48:53;;;;;;;11.68;7.80;;;;;;;;;;5111088;28;20015;-61
2023/12/15 06:51:19;;;;;;;13.57;7.38;;;;;;;;;;5100733;28;20031;-60
2023/12/15 06:53:45;;;;;;;11.20;7.20;;;;;;;;;;5111590;28;20494;-59
2023/12/15 06:56:11;;;;;;;12.30;7.28;;;;;;;;;;5110536;28;20024;-61
2023/12/15 06:58:37;;;;;;;11.15;6.80;;;;;;;;;;5104149;28;20349;-59
2023/12/15 07:01:03;;;;;;;9.40;6.63;;;;;;;;;;5107491;28;20032;-61
2023/12/15 07:03:29;;;;;;;10.63;6.68;;;;;;;;;;5111080;28;20024;-61
2023/12/15 07:05:55;;;;;;;12.90;6.15;;;;;;;;;;5111630;28;20033;-61
2023/12/15 07:08:21;;;;;;;12.55;7.38;;;;;;;;;;5109505;28;20094;-61
2023/12/15 07:10:47;;;;;;;12.20;7.47;;;;;;;;;;5111272;28;20465;-61
2023/12/15 07:13:13;;;;;;;13.88;7.13;;;;;;;;;;5109487;28;20042;-61
2023/12/15 07:15:39;;;;;;;9.65;6.50;;;;;;;;;;5111380;28;20019;-61
2023/12/15 07:18:05;;;;;;;9.70;6.70;;;;;;;;;;5109405;28;20050;-61
2023/12/15 07:20:31;;;;;;;11.70;6.65;;;;;;;;;;5110158;28;20020;-61
2023/12/15 07:22:57;;;;;;;9.25;6.53;;;;;;;;;;5110483;28;20030;-61
2023/12/15 07:25:26;;;;;;;9.68;7.25;;;;;;;;;;5110846;28;20364;-61
2023/12/15 07:27:53;;;;;;;9.93;6.68;;;;;;;;;;5110494;28;20389;-61
2023/12/15 07:30:19;;;;;;;13.25;6.93;;;;;;;;;;5110185;28;20024;-60
2023/12/15 07:32:45;;;;;;;11.50;7.45;;;;;;;;;;5110492;28;20027;-61
2023/12/15 07:35:11;;;;;;;11.18;6.53;;;;;;;;;;5110018;28;20384;-61
2023/12/15 07:37:37;;;;;;;12.88;7.03;;;;;;;;;;5108813;28;20034;-61
2023/12/15 07:40:03;;;;;;;8.68;6.43;;;;;;;;;;5109795;28;20019;-61
2023/12/15 07:42:30;;;;;;;10.68;6.80;;;;;;;;;;5109566;28;20701;-61
2023/12/15 07:44:55;;;;;;;13.02;6.88;;;;;;;;;;5110871;28;20020;-62
2023/12/15 07:47:22;;;;;;;11.00;7.40;;;;;;;;;;5109387;28;20020;-61
2023/12/15 07:49:48;;;;;;;10.20;7.05;;;;;;;;;;5111252;28;20024;-61
2023/12/15 07:52:14;;;;;;;9.40;7.07;;;;;;;;;;5108700;28;20036;-61
2023/12/15 07:54:41;;;;;;;12.32;7.00;;;;;;;;;;5105553;28;20503;-61
2023/12/15 07:57:07;;;;;;;11.00;7.15;;;;;;;;;;5109232;28;20035;-61
2023/12/15 07:59:35;;;;;;;11.57;7.35;;;;;;;;;;5107594;28;20015;-61
2023/12/15 08:02:03;;;;;;;13.18;8.30;;;;;;;;;;5109180;28;20035;-62
2023/12/15 08:04:29;;;;;;;11.27;8.25;;;;;;;;;;5110833;28;20034;-60
2023/12/15 08:06:55;;;;;;;13.13;8.57;;;;;;;;;;5091071;28;20023;-60
2023/12/15 08:09:21;;;;;;;17.50;9.15;;;;;;;;;;5111945;28;20103;-60
2023/12/15 08:11:47;;;;;;;14.45;8.60;;;;;;;;;;5113944;27;20032;-60
2023/12/15 08:14:12;;;;;;;13.55;8.85;;;;;;;;;;5095433;28;20023;-60
2023/12/15 08:16:38;;;;;;;13.82;9.18;;;;;;;;;;5114085;28;20482;-60
2023/12/15 08:19:07;;;;;;;12.27;8.77;;;;;;;;;;5112469;28;20113;-60
2023/12/15 08:21:33;;;;;;;16.77;9.30;;;;;;;;;;5113641;28;20043;-60
2023/12/15 08:23:59;;;;;;;13.80;9.50;;;;;;;;;;5114631;28;20012;-61
2023/12/15 08:26:27;;;;;;;14.95;9.43;;;;;;;;;;5096198;28;20111;-60
2023/12/15 08:28:53;;;;;;;12.70;9.07;;;;;;;;;;5114233;28;20418;-60
2023/12/15 08:31:20;;;;;;;15.57;10.18;;;;;;;;;;5114678;27;20072;-60
2023/12/15 08:33:46;;;;;;;13.48;9.52;;;;;;;;;;5113955;28;20036;-60
2023/12/15 08:36:12;;;;;;;14.10;8.85;;;;;;;;;;5112864;28;20026;-60
2023/12/15 08:38:38;;;;;;;15.20;10.18;;;;;;;;;;5115363;27;20103;-60
2023/12/15 08:41:04;;;;;;;15.45;10.15;;;;;;;;;;5112798;28;20111;-61
2023/12/15 08:43:30;;;;;;;18.30;11.73;;;;;;;;;;5112935;28;20500;-61
2023/12/15 08:45:56;;;;;;;24.83;15.98;;;;;;;;;;5114122;28;20050;-61
2023/12/15 08:48:22;;;;;;;19.23;11.68;;;;;;;;;;5112373;28;20035;-61
2023/12/15 08:50:49;;;;;;;17.23;11.45;;;;;;;;;;5114501;28;20023;-61
2023/12/15 08:53:16;;;;;;;29.05;18.58;;;;;;;;;;5105907;28;20111;-61
2023/12/15 08:55:42;;;;;;;22.90;14.93;;;;;;;;;;5114326;28;20016;-60
2023/12/15 08:58:09;;;;;;;19.80;12.15;;;;;;;;;;5109393;28;20071;-61
2023/12/15 09:00:35;;;;;;;19.83;11.52;;;;;;;;;;5096795;28;20024;-61
2023/12/15 09:03:01;;;;;;;23.83;14.68;;;;;;;;;;5112242;28;20027;-61
2023/12/15 09:05:27;;;;;;;26.77;15.38;;;;;;;;;;5127359;27;20027;-60
2023/12/15 09:07:53;;;;;;;29.13;17.73;;;;;;;;;;5109550;28;20027;-61
2023/12/15 09:10:20;;;;;;;22.77;13.57;;;;;;;;;;5112226;28;20703;-60
2023/12/15 09:12:46;;;;;;;18.27;11.38;;;;;;;;;;5113174;28;20027;-60
2023/12/15 09:15:13;;;;;;;15.05;10.57;;;;;;;;;;5111958;28;20367;-61
2023/12/15 09:17:39;;;;;;;14.02;10.45;;;;;;;;;;5114422;27;20026;-60
2023/12/15 09:20:06;;;;;;;14.88;9.15;;;;;;;;;;5111073;28;20039;-61
2023/12/15 09:22:32;;;;;;;16.40;10.50;;;;;;;;;;5113063;28;20027;-60
2023/12/15 09:24:58;;;;;;;15.05;10.75;;;;;;;;;;5113402;28;20019;-61
2023/12/15 09:27:24;;;;;;;15.60;9.60;;;;;;;;;;5108732;28;20095;-60
2023/12/15 09:29:50;;;;;;;15.57;10.70;;;;;;;;;;5107489;28;20039;-60
2023/12/15 09:32:16;;;;;;;14.07;9.23;;;;;;;;;;5110679;28;20434;-60
2023/12/15 09:34:42;;;;;;;16.00;9.88;;;;;;;;;;5113129;28;20092;-60
2023/12/15 09:37:08;;;;;;;14.50;9.00;;;;;;;;;;5111504;28;20012;-60
2023/12/15 09:39:34;;;;;;;13.80;9.38;;;;;;;;;;5105058;28;20050;-60
2023/12/15 09:42:00;;;;;;;12.93;10.20;;;;;;;;;;5109626;28;20055;-60
2023/12/15 09:44:26;;;;;;;15.82;10.18;;;;;;;;;;5108541;28;20042;-60
2023/12/15 09:46:52;;;;;;;15.23;9.52;;;;;;;;;;5112601;28;20058;-60
2023/12/15 09:49:20;;;;;;;12.57;8.98;;;;;;;;;;5110147;27;20020;-60
2023/12/15 09:51:50;;;;;;;13.95;10.02;;;;;;;;;;5101918;28;20119;-60
2023/12/15 09:54:16;;;;;;;17.20;11.75;;;;;;;;;;5111391;27;20039;-60
2023/12/15 09:56:42;;;;;;;21.50;14.38;;;;;;;;;;5112338;28;20492;-60
2023/12/15 09:59:08;;;;;;;14.85;8.98;;;;;;;;;;5101014;28;20012;-61
2023/12/15 10:01:34;;;;;;;14.18;9.60;;;;;;;;;;5107191;28;20430;-60
2023/12/15 10:04:00;;;;;;;12.65;8.98;;;;;;;;;;5105412;28;20018;-61
2023/12/15 10:06:27;;;;;;;15.98;10.68;;;;;;;;;;5111642;28;20019;-61
2023/12/15 10:08:53;;;;;;;14.85;10.32;;;;;;;;;;5106668;28;20023;-60
2023/12/15 10:11:19;;;;;;;12.57;9.73;;;;;;;;;;5111497;28;20035;-60
2023/12/15 10:13:45;;;;;;;10.55;8.15;;;;;;;;;;5099880;28;20365;-60
2023/12/15 10:16:11;;;;;;;13.18;9.27;;;;;;;;;;5108075;28;20371;-61
2023/12/15 10:18:38;;;;;;;12.80;8.43;;;;;;;;;;5107740;28;20044;-60
2023/12/15 10:21:05;;;;;;;14.00;9.32;;;;;;;;;;5111595;28;20038;-61
2023/12/15 10:23:31;;;;;;;13.27;9.98;;;;;;;;;;5102417;28;20050;-61
2023/12/15 10:26:03;;;;;;;13.27;8.55;;;;;;;;;;5109387;28;20035;-60
2023/12/15 10:28:39;;;;;;;12.32;8.63;;;;;;;;;;5113563;27;20022;-60
2023/12/15 10:31:09;;;;;;;14.18;8.90;;;;;;;;;;5110210;28;20042;-61
2023/12/15 10:33:35;;;;;;;13.23;9.50;;;;;;;;;;5101459;28;20103;-60
2023/12/15 10:36:01;;;;;;;15.30;8.57;;;;;;;;;;5106943;28;20023;-60
2023/12/15 10:38:31;;;;;;;14.50;8.25;;;;;;;;;;5104829;28;20115;-60
2023/12/15 10:40:57;;;;;;;13.35;9.20;;;;;;;;;;5111898;28;20039;-60
2023/12/15 10:43:24;;;;;;;15.23;8.90;;;;;;;;;;5102207;28;20060;-60
2023/12/15 10:45:54;;;;;;;11.07;8.20;;;;;;;;;;5105381;28;20028;-60
2023/12/15 10:48:20;;;;;;;12.00;8.73;;;;;;;;;;5104658;28;20019;-60
2023/12/15 10:50:47;;;;;;;15.18;9.20;;;;;;;;;;5111693;28;20043;-60
2023/12/15 10:53:14;;;;;;;13.20;8.82;;;;;;;;;;5092822;28;20043;-60
2023/12/15 10:55:42;;;;;;;12.77;8.52;;;;;;;;;;5103718;28;20046;-60
2023/12/15 10:58:10;;;;;;;10.90;7.93;;;;;;;;;;5102554;28;20103;-61
2023/12/15 11:00:36;;;;;;;12.93;8.43;;;;;;;;;;5109878;27;20012;-60
2023/12/15 11:03:03;;;;;;;9.85;7.40;;;;;;;;;;5118762;27;20453;-60
2023/12/15 11:05:32;;;;;;;15.63;7.93;;;;;;;;;;5102435;28;20052;-60
2023/12/15 11:07:58;;;;;;;10.75;7.50;;;;;;;;;;5107760;28;20456;-60
2023/12/15 11:10:24;;;;;;;12.75;8.00;;;;;;;;;;5109394;28;20027;-61
2023/12/15 11:12:52;;;;;;;12.95;7.00;;;;;;;;;;5109052;28;20015;-60
2023/12/15 11:15:18;;;;;;;8.13;6.38;;;;;;;;;;5099609;28;20492;-60
2023/12/15 11:17:54;;;;;;;10.60;7.18;;;;;;;;;;5108839;27;20028;-60
2023/12/15 11:20:20;;;;;;;10.05;6.80;;;;;;;;;;5110200;28;20023;-60
2023/12/15 11:22:52;;;;;;;9.93;7.43;;;;;;;;;;5110059;28;20084;-60
2023/12/15 11:25:19;;;;;;;9.48;6.95;;;;;;;;;;5099873;28;20035;-60
2023/12/15 11:27:59;;;;;;;7.80;6.05;;;;;;;;;;5115086;27;20452;-60
2023/12/15 11:30:34;;;;;;;8.27;5.72;;;;;;;;;;5110403;28;20055;-60
2023/12/15 11:33:00;;;;;;;8.23;5.47;;;;;;;;;;5088725;28;20023;-62
2023/12/15 11:35:32;;;;;;;9.48;5.05;;;;;;;;;;5111066;27;20514;-61
2023/12/15 11:37:59;;;;;;;6.80;5.22;;;;;;;;;;5108470;28;20024;-60
2023/12/15 11:40:30;;;;;;;7.72;5.13;;;;;;;;;;5109332;28;20035;-60
2023/12/15 11:42:59;;;;;;;8.57;5.38;;;;;;;;;;5107866;28;20103;-60
2023/12/15 11:45:29;;;;;;;8.13;5.25;;;;;;;;;;5100792;28;20046;-60
2023/12/15 11:47:55;;;;;;;8.57;5.30;;;;;;;;;;5109888;28;20107;-60
2023/12/15 11:50:21;;;;;;;6.57;4.72;;;;;;;;;;5107736;28;20594;-60
2023/12/15 11:52:48;;;;;;;8.52;5.00;;;;;;;;;;5091027;28;20024;-60
2023/12/15 11:55:15;;;;;;;9.73;4.78;;;;;;;;;;5117827;28;20043;-60
2023/12/15 11:57:41;;;;;;;7.40;5.00;;;;;;;;;;5109244;28;20024;-63
2023/12/15 12:00:09;;;;;;;6.22;4.72;;;;;;;;;;5106803;28;20388;-63
2023/12/15 12:02:36;;;;;;;10.27;4.72;;;;;;;;;;5097300;28;20035;-62
2023/12/15 12:05:02;;;;;;;4.85;4.05;;;;;;;;;;5100491;28;20047;-61
2023/12/15 12:07:28;;;;;;;6.75;4.70;;;;;;;;;;5109920;28;20042;-61
2023/12/15 12:09:54;;;;;;;5.32;4.35;;;;;;;;;;5105568;28;20096;-61
2023/12/15 12:12:20;;;;;;;5.68;4.50;;;;;;;;;;5110880;28;20133;-61
2023/12/15 12:14:46;;;;;;;7.57;4.50;;;;;;;;;;5107085;28;20044;-61
2023/12/15 12:17:12;;;;;;;4.55;4.05;;;;;;;;;;5098605;28;20023;-61
2023/12/15 12:31:25;;;;;;;5.03;3.63;;;;;;;;;;5119571;22;19925;-61
2023/12/15 12:33:51;;;;;;;6.45;4.20;;;;;;;;;;5037420;28;20068;-60
2023/12/15 12:36:17;;;;;;;5.75;4.43;;;;;;;;;;5047036;28;20455;-62
2023/12/15 12:38:43;;;;;;;7.72;4.57;;;;;;;;;;5043539;28;20100;-62
2023/12/15 12:41:09;;;;;;;5.55;3.80;;;;;;;;;;5048224;28;20032;-63
2023/12/15 12:43:35;;;;;;;4.80;3.70;;;;;;;;;;5039084;28;20368;-62
2023/12/15 12:46:01;;;;;;;5.95;3.92;;;;;;;;;;5045181;28;20060;-62
2023/12/15 12:48:30;;;;;;;7.15;4.30;;;;;;;;;;5045340;28;20153;-63
2023/12/15 12:50:56;;;;;;;6.68;4.07;;;;;;;;;;5036089;28;20351;-60
2023/12/15 12:53:22;;;;;;;5.70;4.40;;;;;;;;;;5041174;28;20021;-61
2023/12/15 12:55:48;;;;;;;5.57;4.07;;;;;;;;;;5044260;28;20029;-62
2023/12/15 12:58:14;;;;;;;6.30;4.20;;;;;;;;;;5045540;28;20029;-62
2023/12/15 13:00:40;;;;;;;8.63;3.95;;;;;;;;;;5052113;28;20385;-62
2023/12/15 13:03:06;;;;;;;6.88;4.43;;;;;;;;;;5047915;28;20025;-63
2023/12/15 13:05:32;;;;;;;5.32;4.00;;;;;;;;;;5049143;28;20017;-61
2023/12/15 13:07:58;;;;;;;6.22;3.83;;;;;;;;;;5049834;28;20544;-65
2023/12/15 13:10:24;;;;;;;5.95;3.65;;;;;;;;;;5050101;28;20037;-62
2023/12/15 13:12:59;;;;;;;6.38;4.30;;;;;;;;;;5051229;28;20032;-62
2023/12/15 13:15:25;;;;;;;6.55;4.13;;;;;;;;;;5042746;28;20032;-62
2023/12/15 13:17:59;;;;;;;6.35;4.05;;;;;;;;;;5051010;28;20037;-62
2023/12/15 13:20:25;;;;;;;9.00;4.45;;;;;;;;;;5051191;28;20057;-62
2023/12/15 13:22:51;;;;;;;4.97;3.90;;;;;;;;;;5051648;28;20048;-62
2023/12/15 13:25:17;;;;;;;6.70;4.20;;;;;;;;;;5038197;28;20024;-65
2023/12/15 13:27:43;;;;;;;5.40;3.83;;;;;;;;;;5054625;28;20045;-63
2023/12/15 13:30:10;;;;;;;7.20;3.78;;;;;;;;;;5051201;28;20111;-67
2023/12/15 13:32:36;;;;;;;4.75;3.08;;;;;;;;;;5046918;28;20060;-63
2023/12/15 13:35:02;;;;;;;4.18;3.17;;;;;;;;;;5041564;28;20100;-63
2023/12/15 13:37:30;;;;;;;5.07;3.47;;;;;;;;;;5051083;28;20024;-64
2023/12/15 13:39:56;;;;;;;4.78;2.80;;;;;;;;;;5047090;28;20163;-63
2023/12/15 13:42:22;;;;;;;3.83;2.70;;;;;;;;;;5050879;28;20624;-67
2023/12/15 13:44:48;;;;;;;5.00;2.20;;;;;;;;;;5040367;28;20098;-66
2023/12/15 13:47:14;;;;;;;2.17;1.92;;;;;;;;;;5051613;28;20017;-65
2023/12/15 13:49:40;;;;;;;2.95;1.70;;;;;;;;;;5046940;28;20029;-64
2023/12/15 13:52:07;;;;;;;4.25;2.05;;;;;;;;;;5049887;28;20032;-70
2023/12/15 13:54:33;;;;;;;2.47;1.70;;;;;;;;;;5041080;28;20482;-67
2023/12/15 13:57:03;;;;;;;6.20;2.17;;;;;;;;;;5051528;28;20017;-65
2023/12/15 13:59:29;;;;;;;2.47;1.70;;;;;;;;;;5044205;28;20048;-65
2023/12/15 14:01:55;;;;;;;2.80;1.73;;;;;;;;;;5051172;28;20123;-65
2023/12/15 14:04:21;;;;;;;2.13;1.60;;;;;;;;;;5041824;28;20156;-66
2023/12/15 14:06:49;;;;;;;4.00;2.15;;;;;;;;;;5050592;28;20362;-65
2023/12/15 14:09:15;;;;;;;2.80;1.80;;;;;;;;;;5049685;28;20479;-65
2023/12/15 14:11:42;;;;;;;4.70;2.60;;;;;;;;;;5050412;28;20114;-65
2023/12/15 14:14:08;;;;;;;4.45;1.92;;;;;;;;;;5035368;28;20035;-65
2023/12/15 14:16:34;;;;;;;3.00;1.45;;;;;;;;;;5050371;28;20021;-65
2023/12/15 14:19:00;;;;;;;2.60;1.50;;;;;;;;;;5056430;28;20327;-64
2023/12/15 14:21:26;;;;;;;2.83;1.30;;;;;;;;;;5049356;28;20139;-65
2023/12/15 14:23:53;;;;;;;3.05;1.15;;;;;;;;;;5044125;28;20047;-65
2023/12/15 14:26:19;;;;;;;2.85;1.23;;;;;;;;;;5037879;28;20047;-65
2023/12/15 14:28:45;;;;;;;2.10;1.50;;;;;;;;;;5049773;28;20092;-66
2023/12/15 14:31:11;;;;;;;2.92;1.55;;;;;;;;;;5050367;28;20080;-65
2023/12/15 14:33:37;;;;;;;2.33;1.33;;;;;;;;;;5029224;28;20061;-65
2023/12/15 14:36:03;;;;;;;4.47;1.67;;;;;;;;;;5038776;28;20052;-66
2023/12/15 14:38:29;;;;;;;2.42;1.45;;;;;;;;;;5033898;28;20513;-66